createdAt,value
2019-05-26T00:02:15.275Z,23.70
2019-05-26T00:04:43.517Z,23.70
2019-05-26T00:07:11.827Z,23.70
2019-05-26T00:09:40.065Z,23.70
2019-05-26T00:12:08.329Z,23.70
2019-05-26T00:14:36.613Z,23.70
2019-05-26T00:17:04.875Z,23.70
2019-05-26T00:19:33.121Z,23.70
2019-05-26T00:22:01.472Z,23.70
2019-05-26T00:24:29.769Z,23.70
2019-05-26T00:27:17.500Z,23.70
2019-05-26T00:29:48.660Z,23.70
2019-05-26T00:32:16.918Z,23.70
2019-05-26T00:34:45.494Z,23.70
2019-05-26T00:37:13.807Z,23.70
2019-05-26T00:39:42.256Z,23.70
2019-05-26T00:42:10.581Z,23.70
2019-05-26T00:44:38.884Z,23.70
2019-05-26T00:47:07.372Z,23.70
2019-05-26T00:49:35.674Z,23.70
2019-05-26T00:52:04.212Z,23.60
2019-05-26T00:54:32.620Z,23.60
2019-05-26T00:57:00.925Z,23.60
2019-05-26T00:59:29.233Z,23.60
2019-05-26T01:01:57.638Z,23.60
2019-05-26T01:04:26.048Z,23.60
2019-05-26T01:06:54.430Z,23.60
2019-05-26T01:09:22.770Z,23.60
2019-05-26T01:11:51.044Z,23.60
2019-05-26T01:14:19.400Z,23.60
2019-05-26T01:16:47.660Z,23.60
2019-05-26T01:19:15.917Z,23.60
2019-05-26T01:21:44.336Z,23.60
2019-05-26T01:24:12.580Z,23.60
2019-05-26T01:26:40.888Z,23.60
2019-05-26T01:29:09.117Z,23.60
2019-05-26T01:31:37.385Z,23.60
2019-05-26T01:34:05.626Z,23.60
2019-05-26T01:36:33.898Z,23.60
2019-05-26T01:39:02.196Z,23.60
2019-05-26T01:41:30.451Z,23.60
2019-05-26T01:43:58.743Z,23.60
2019-05-26T01:46:27.010Z,23.60
2019-05-26T01:48:55.287Z,23.60
2019-05-26T01:51:23.584Z,23.60
2019-05-26T01:53:51.929Z,23.60
2019-05-26T01:56:20.226Z,23.60
2019-05-26T01:58:48.481Z,23.60
2019-05-26T02:01:16.811Z,23.50
2019-05-26T02:03:45.039Z,23.60
2019-05-26T02:06:13.280Z,23.60
2019-05-26T02:08:41.561Z,23.60
2019-05-26T02:11:09.837Z,23.60
2019-05-26T02:13:38.117Z,23.50
2019-05-26T02:16:06.385Z,23.50
2019-05-26T02:18:34.668Z,23.50
2019-05-26T02:21:02.909Z,23.60
2019-05-26T02:23:31.225Z,23.50
2019-05-26T02:25:59.546Z,23.60
2019-05-26T02:28:27.849Z,23.50
2019-05-26T02:30:56.188Z,23.50
2019-05-26T02:33:24.452Z,23.50
2019-05-26T02:35:52.752Z,23.50
2019-05-26T02:38:25.730Z,23.50
2019-05-26T02:40:51.020Z,23.50
2019-05-26T02:43:19.343Z,23.50
2019-05-26T02:45:47.608Z,23.50
2019-05-26T02:48:15.929Z,23.50
2019-05-26T02:50:44.339Z,23.50
2019-05-26T02:53:12.607Z,23.50
2019-05-26T02:55:40.904Z,23.50
2019-05-26T02:58:09.158Z,23.50
2019-05-26T03:00:42.898Z,23.50
2019-05-26T03:03:11.884Z,23.50
2019-05-26T03:05:41.294Z,23.50
2019-05-26T03:08:09.550Z,23.50
2019-05-26T03:10:37.920Z,23.50
2019-05-26T03:13:06.163Z,23.50
2019-05-26T03:15:35.024Z,23.50
2019-05-26T03:18:06.809Z,23.50
2019-05-26T03:20:40.275Z,23.40
2019-05-26T03:23:08.701Z,23.50
2019-05-26T03:25:37.459Z,23.50
2019-05-26T03:28:06.797Z,23.50
2019-05-26T03:30:36.838Z,23.50
2019-05-26T03:33:05.295Z,23.50
2019-05-26T03:35:33.587Z,23.40
2019-05-26T03:38:01.869Z,23.50
2019-05-26T03:40:30.135Z,23.40
2019-05-26T03:42:58.408Z,23.40
2019-05-26T03:45:38.605Z,23.40
2019-05-26T03:48:06.915Z,23.40
2019-05-26T03:50:35.141Z,23.40
2019-05-26T03:53:03.410Z,23.40
2019-05-26T03:55:31.658Z,23.40
2019-05-26T03:57:59.950Z,23.40
2019-05-26T04:00:28.287Z,23.40
2019-05-26T04:02:56.527Z,23.40
2019-05-26T04:05:24.879Z,23.40
2019-05-26T04:07:53.142Z,23.40
2019-05-26T04:10:21.610Z,23.40
2019-05-26T04:12:49.870Z,23.40
2019-05-26T04:15:18.333Z,23.40
2019-05-26T04:17:46.593Z,23.40
2019-05-26T04:20:14.932Z,23.50
2019-05-26T04:22:43.252Z,23.50
2019-05-26T04:25:11.535Z,23.50
2019-05-26T04:27:39.867Z,23.50
2019-05-26T04:30:08.248Z,23.50
2019-05-26T04:32:36.523Z,23.50
2019-05-26T04:35:07.730Z,23.50
2019-05-26T04:37:36.020Z,23.50
2019-05-26T04:40:25.128Z,23.50
2019-05-26T04:42:57.035Z,23.50
2019-05-26T04:45:25.425Z,23.50
2019-05-26T04:48:13.182Z,23.50
2019-05-26T04:50:41.471Z,23.50
2019-05-26T04:53:09.728Z,23.50
2019-05-26T04:55:38.022Z,23.60
2019-05-26T04:58:06.317Z,23.50
2019-05-26T05:00:34.746Z,23.50
2019-05-26T05:03:03.113Z,23.60
2019-05-26T05:05:31.463Z,23.50
2019-05-26T05:07:59.724Z,23.50
2019-05-26T05:10:41.336Z,23.60
2019-05-26T05:12:58.034Z,23.50
2019-05-26T05:15:26.321Z,23.50
2019-05-26T05:17:54.605Z,23.60
2019-05-26T05:20:22.871Z,23.60
2019-05-26T05:22:51.135Z,23.60
2019-05-26T05:25:19.431Z,23.60
2019-05-26T05:27:47.671Z,23.60
2019-05-26T05:30:15.940Z,23.60
2019-05-26T05:32:44.219Z,23.60
2019-05-26T05:35:12.481Z,23.60
2019-05-26T05:37:40.750Z,23.60
2019-05-26T05:40:09.227Z,23.60
2019-05-26T05:42:37.557Z,23.60
2019-05-26T05:45:08.040Z,23.60
2019-05-26T05:47:36.371Z,23.60
2019-05-26T05:50:08.379Z,23.60
2019-05-26T05:52:36.673Z,23.60
2019-05-26T05:55:05.833Z,23.70
2019-05-26T05:57:34.069Z,23.70
2019-05-26T06:00:02.331Z,23.70
2019-05-26T06:02:30.577Z,23.70
2019-05-26T06:04:58.929Z,23.80
2019-05-26T06:07:27.174Z,23.80
2019-05-26T06:09:55.527Z,23.80
2019-05-26T06:12:23.826Z,23.80
2019-05-26T06:14:52.136Z,23.80
2019-05-26T06:17:20.370Z,23.90
2019-05-26T06:19:48.817Z,23.90
2019-05-26T06:22:17.152Z,23.90
2019-05-26T06:24:45.462Z,24.00
2019-05-26T06:27:13.758Z,24.10
2019-05-26T06:29:55.976Z,24.10
2019-05-26T06:32:13.052Z,24.20
2019-05-26T06:34:41.511Z,24.20
2019-05-26T06:37:09.840Z,24.30
2019-05-26T06:39:38.126Z,24.40
2019-05-26T06:42:06.831Z,24.40
2019-05-26T06:44:52.009Z,24.40
2019-05-26T06:47:05.078Z,24.40
2019-05-26T06:49:33.423Z,24.50
2019-05-26T06:52:01.666Z,24.50
2019-05-26T06:54:29.945Z,24.50
2019-05-26T06:56:58.239Z,24.50
2019-05-26T06:59:26.570Z,24.60
2019-05-26T07:01:54.820Z,24.60
2019-05-26T07:04:23.066Z,24.60
2019-05-26T07:06:51.433Z,24.60
2019-05-26T07:09:19.798Z,24.60
2019-05-26T07:11:55.866Z,24.60
2019-05-26T07:14:18.190Z,24.60
2019-05-26T07:16:46.472Z,24.60
2019-05-26T07:19:14.730Z,24.60
2019-05-26T07:21:43.016Z,24.60
2019-05-26T07:24:11.260Z,24.60
2019-05-26T07:26:39.560Z,24.50
2019-05-26T07:29:07.808Z,24.50
2019-05-26T07:31:36.147Z,24.40
2019-05-26T07:34:04.444Z,24.40
2019-05-26T07:36:32.736Z,24.30
2019-05-26T07:39:01.062Z,24.30
2019-05-26T07:41:29.457Z,24.30
2019-05-26T07:43:57.731Z,24.20
2019-05-26T07:46:26.741Z,24.20
2019-05-26T07:48:55.047Z,24.20
2019-05-26T07:51:23.295Z,24.20
2019-05-26T07:53:51.586Z,24.20
2019-05-26T07:56:19.833Z,24.20
2019-05-26T07:58:48.113Z,24.20
2019-05-26T08:01:16.443Z,24.30
2019-05-26T08:03:44.683Z,24.20
2019-05-26T08:06:12.946Z,24.20
2019-05-26T08:08:41.217Z,24.20
2019-05-26T08:11:09.552Z,24.20
2019-05-26T08:13:37.842Z,24.20
2019-05-26T08:16:06.105Z,24.10
2019-05-26T08:18:34.388Z,24.10
2019-05-26T08:21:02.673Z,24.10
2019-05-26T08:23:30.955Z,24.10
2019-05-26T08:26:00.928Z,24.10
2019-05-26T08:28:29.227Z,24.10
2019-05-26T08:30:57.474Z,24.10
2019-05-26T08:33:25.795Z,24.10
2019-05-26T08:35:54.083Z,24.10
2019-05-26T08:38:22.354Z,24.10
2019-05-26T08:40:50.635Z,24.10
2019-05-26T08:43:18.906Z,24.10
2019-05-26T08:45:47.143Z,24.10
2019-05-26T08:48:15.612Z,24.10
2019-05-26T08:50:43.897Z,24.00
2019-05-26T08:53:12.143Z,24.00
2019-05-26T08:55:40.405Z,24.00
2019-05-26T08:58:08.663Z,24.00
2019-05-26T09:00:36.922Z,24.00
2019-05-26T09:03:05.180Z,24.00
2019-05-26T09:05:33.701Z,24.00
2019-05-26T09:08:01.946Z,24.00
2019-05-26T09:10:30.245Z,24.00
2019-05-26T09:13:01.272Z,23.90
2019-05-26T09:15:28.529Z,24.00
2019-05-26T09:17:56.769Z,23.90
2019-05-26T09:20:26.158Z,23.90
2019-05-26T09:22:54.390Z,23.90
2019-05-26T09:25:22.639Z,23.90
2019-05-26T09:27:50.930Z,23.90
2019-05-26T09:30:20.998Z,23.90
2019-05-26T09:32:49.316Z,23.90
2019-05-26T09:35:17.578Z,23.90
2019-05-26T09:37:45.830Z,23.90
2019-05-26T09:40:14.105Z,23.90
2019-05-26T09:42:45.743Z,23.90
2019-05-26T09:45:15.636Z,23.90
2019-05-26T09:47:43.972Z,23.90
2019-05-26T09:50:12.285Z,23.90
2019-05-26T09:52:40.594Z,23.90
2019-05-26T09:55:09.117Z,23.90
2019-05-26T09:57:37.404Z,23.90
2019-05-26T10:00:06.826Z,23.90
2019-05-26T10:02:35.132Z,24.00
2019-05-26T10:05:04.910Z,23.90
2019-05-26T10:07:33.168Z,23.90
2019-05-26T10:10:01.444Z,23.90
2019-05-26T10:12:29.774Z,24.00
2019-05-26T10:14:58.082Z,23.90
2019-05-26T10:17:26.357Z,23.90
2019-05-26T10:19:55.882Z,23.90
2019-05-26T10:22:24.190Z,24.00
2019-05-26T10:24:54.084Z,24.00
2019-05-26T10:27:22.378Z,24.00
2019-05-26T10:29:50.648Z,24.00
2019-05-26T10:32:18.928Z,24.00
2019-05-26T10:34:47.191Z,24.00
2019-05-26T10:37:15.469Z,24.00
2019-05-26T10:39:45.213Z,24.00
2019-05-26T10:42:13.681Z,24.00
2019-05-26T10:44:41.965Z,24.00
2019-05-26T10:47:10.209Z,24.00
2019-05-26T10:49:38.572Z,24.00
2019-05-26T10:52:07.180Z,24.00
2019-05-26T10:54:35.472Z,24.10
2019-05-26T10:57:03.730Z,24.00
2019-05-26T10:59:32.021Z,24.10
2019-05-26T11:02:00.293Z,24.00
2019-05-26T11:04:28.608Z,24.00
2019-05-26T11:06:56.843Z,24.00
2019-05-26T11:09:25.143Z,24.00
2019-05-26T11:11:53.384Z,24.00
2019-05-26T11:14:21.673Z,24.00
2019-05-26T11:16:49.967Z,24.00
2019-05-26T11:19:18.441Z,24.00
2019-05-26T11:21:46.763Z,24.10
2019-05-26T11:24:15.033Z,24.10
2019-05-26T11:26:43.302Z,24.10
2019-05-26T11:29:11.685Z,24.10
2019-05-26T11:31:39.967Z,24.10
2019-05-26T11:34:08.308Z,24.10
2019-05-26T11:36:36.572Z,24.10
2019-05-26T11:39:27.311Z,24.10
2019-05-26T11:41:55.584Z,24.10
2019-05-26T11:44:23.844Z,24.10
2019-05-26T11:46:52.245Z,24.10
2019-05-26T11:49:20.474Z,24.10
2019-05-26T11:51:48.775Z,24.10
2019-05-26T11:54:17.022Z,24.10
2019-05-26T11:56:45.322Z,24.10
2019-05-26T11:59:13.582Z,24.10
2019-05-26T12:01:41.867Z,24.10
2019-05-26T12:04:10.253Z,24.10
2019-05-26T12:06:38.517Z,24.10
2019-05-26T12:09:08.729Z,24.10
2019-05-26T12:11:36.973Z,24.10
2019-05-26T12:14:05.415Z,24.10
2019-05-26T12:16:33.675Z,24.10
2019-05-26T12:19:01.957Z,24.20
2019-05-26T12:21:30.243Z,24.20
2019-05-26T12:23:58.595Z,24.20
2019-05-26T12:26:26.836Z,24.20
2019-05-26T12:28:55.174Z,24.20
2019-05-26T12:31:23.453Z,24.20
2019-05-26T12:33:51.715Z,24.20
2019-05-26T12:36:19.994Z,24.20
2019-05-26T12:38:51.059Z,24.20
2019-05-26T12:41:22.932Z,24.20
2019-05-26T12:43:51.278Z,24.20
2019-05-26T12:46:19.572Z,24.20
2019-05-26T12:48:47.869Z,24.20
2019-05-26T12:51:16.170Z,24.20
2019-05-26T12:53:44.543Z,24.20
2019-05-26T12:56:13.227Z,24.20
2019-05-26T12:58:41.518Z,24.20
2019-05-26T13:01:29.215Z,24.20
2019-05-26T13:03:57.486Z,24.20
2019-05-26T13:06:25.757Z,24.20
2019-05-26T13:08:54.014Z,24.20
2019-05-26T13:11:22.990Z,24.20
2019-05-26T13:13:51.414Z,24.10
2019-05-26T13:16:19.680Z,24.10
2019-05-26T13:18:47.956Z,24.10
2019-05-26T13:21:16.202Z,24.10
2019-05-26T13:23:44.509Z,24.10
2019-05-26T13:26:12.822Z,24.10
2019-05-26T13:28:41.072Z,24.10
2019-05-26T13:31:09.319Z,24.10
2019-05-26T13:33:37.592Z,24.10
2019-05-26T13:36:05.846Z,24.00
2019-05-26T13:38:34.118Z,24.10
2019-05-26T13:41:02.414Z,24.00
2019-05-26T13:43:30.673Z,24.00
2019-05-26T13:45:58.968Z,24.00
2019-05-26T13:48:27.238Z,24.00
2019-05-26T13:50:55.504Z,24.00
2019-05-26T13:53:23.800Z,24.00
2019-05-26T13:55:52.142Z,24.00
2019-05-26T13:58:20.435Z,24.00
2019-05-26T14:00:48.726Z,24.00
2019-05-26T14:03:16.992Z,24.00
2019-05-26T14:05:45.264Z,24.00
2019-05-26T14:08:13.520Z,24.00
2019-05-26T14:10:41.837Z,24.00
2019-05-26T14:13:10.154Z,24.00
2019-05-26T14:15:39.461Z,24.00
2019-05-26T14:18:07.940Z,24.00
2019-05-26T14:20:38.712Z,24.00
2019-05-26T14:23:07.626Z,24.00
2019-05-26T14:25:35.938Z,24.00
2019-05-26T14:28:05.022Z,24.00
2019-05-26T14:30:33.327Z,24.00
2019-05-26T14:33:01.621Z,24.00
2019-05-26T14:35:29.893Z,24.00
2019-05-26T14:37:58.169Z,24.00
2019-05-26T14:40:26.808Z,24.00
2019-05-26T14:42:55.085Z,24.00
2019-05-26T14:45:23.334Z,24.00
2019-05-26T14:47:51.587Z,24.00
2019-05-26T14:50:19.889Z,24.00
2019-05-26T14:52:48.223Z,24.00
2019-05-26T14:55:35.892Z,24.00
2019-05-26T14:58:15.172Z,24.00
2019-05-26T15:00:36.399Z,24.00
2019-05-26T15:03:05.005Z,24.00
2019-05-26T15:05:33.244Z,24.10
2019-05-26T15:08:01.538Z,24.10
2019-05-26T15:10:29.808Z,24.10
2019-05-26T15:12:58.142Z,24.00
2019-05-26T15:15:26.474Z,24.00
2019-05-26T15:17:54.776Z,24.00
2019-05-26T15:20:23.027Z,24.00
2019-05-26T15:22:51.352Z,24.10
2019-05-26T15:25:19.601Z,24.10
2019-05-26T15:27:47.949Z,24.10
2019-05-26T15:30:16.208Z,24.20
2019-05-26T15:32:44.469Z,24.30
2019-05-26T15:35:12.729Z,24.30
2019-05-26T15:37:41.047Z,24.50
2019-05-26T15:40:11.299Z,24.60
2019-05-26T15:42:39.549Z,24.60
2019-05-26T15:45:07.939Z,24.50
2019-05-26T15:47:36.262Z,24.50
2019-05-26T15:50:06.466Z,24.40
2019-05-26T15:52:34.770Z,24.50
2019-05-26T15:55:02.998Z,24.50
2019-05-26T15:57:31.427Z,24.50
2019-05-26T15:59:59.870Z,24.60
2019-05-26T16:02:28.197Z,24.60
2019-05-26T16:04:58.920Z,24.70
2019-05-26T16:07:26.582Z,24.70
2019-05-26T16:09:54.830Z,24.70
2019-05-26T16:12:23.131Z,24.70
2019-05-26T16:14:51.367Z,24.70
2019-05-26T16:17:19.656Z,24.80
2019-05-26T16:19:47.918Z,24.70
2019-05-26T16:22:16.220Z,24.70
2019-05-26T16:24:44.467Z,24.70
2019-05-26T16:27:19.151Z,24.60
2019-05-26T16:29:42.843Z,24.60
2019-05-26T16:32:11.207Z,24.60
2019-05-26T16:34:39.528Z,24.60
2019-05-26T16:37:07.809Z,24.60
2019-05-26T16:39:37.361Z,24.60
2019-05-26T16:42:05.817Z,24.60
2019-05-26T16:44:34.098Z,24.60
2019-05-26T16:47:02.402Z,24.60
2019-05-26T16:49:30.677Z,24.60
2019-05-26T16:51:58.968Z,24.60
2019-05-26T16:54:27.219Z,24.60
2019-05-26T16:56:55.514Z,24.50
2019-05-26T16:59:23.782Z,24.50
2019-05-26T17:01:52.041Z,24.50
2019-05-26T17:04:20.278Z,24.50
2019-05-26T17:06:48.570Z,24.50
2019-05-26T17:09:16.817Z,24.60
2019-05-26T17:11:45.104Z,24.60
2019-05-26T17:14:13.347Z,24.60
2019-05-26T17:16:41.619Z,24.60
2019-05-26T17:19:09.868Z,24.60
2019-05-26T17:21:38.160Z,24.60
2019-05-26T17:24:06.510Z,24.60
2019-05-26T17:26:35.251Z,24.60
2019-05-26T17:29:03.540Z,24.70
2019-05-26T17:31:31.848Z,25.00
2019-05-26T17:34:00.105Z,25.20
2019-05-26T17:36:28.357Z,25.30
2019-05-26T17:38:56.673Z,25.30
2019-05-26T17:41:24.910Z,25.40
2019-05-26T17:43:53.237Z,25.40
2019-05-26T17:46:21.481Z,25.40
2019-05-26T17:48:49.756Z,25.40
2019-05-26T17:51:18.059Z,25.40
2019-05-26T17:53:46.324Z,25.40
2019-05-26T17:56:14.601Z,25.30
2019-05-26T17:58:42.849Z,25.30
2019-05-26T18:01:11.233Z,25.30
2019-05-26T18:03:39.583Z,25.20
2019-05-26T18:06:08.151Z,25.10
2019-05-26T18:08:37.027Z,25.00
2019-05-26T18:11:05.849Z,25.00
2019-05-26T18:13:34.100Z,25.00
2019-05-26T18:16:02.466Z,25.00
2019-05-26T18:18:30.819Z,25.00
2019-05-26T18:20:59.100Z,24.90
2019-05-26T18:23:27.325Z,24.90
2019-05-26T18:25:55.617Z,24.80
2019-05-26T18:28:23.931Z,24.80
2019-05-26T18:30:52.411Z,24.70
2019-05-26T18:33:20.750Z,24.70
2019-05-26T18:35:49.036Z,24.70
2019-05-26T18:38:17.399Z,24.70
2019-05-26T18:40:45.663Z,24.70
2019-05-26T18:43:13.919Z,24.70
2019-05-26T18:45:42.245Z,24.70
2019-05-26T18:48:10.489Z,24.70
2019-05-26T18:50:38.816Z,24.60
2019-05-26T18:53:07.075Z,24.60
2019-05-26T18:55:35.385Z,24.60
2019-05-26T18:58:03.732Z,24.60
2019-05-26T19:00:32.194Z,24.60
2019-05-26T19:03:00.504Z,24.60
2019-05-26T19:05:33.854Z,24.60
2019-05-26T19:08:00.730Z,24.60
2019-05-26T19:10:28.782Z,24.60
2019-05-26T19:12:57.056Z,24.60
2019-05-26T19:15:25.593Z,24.60
2019-05-26T19:17:53.845Z,24.60
2019-05-26T19:20:22.114Z,24.60
2019-05-26T19:22:53.295Z,24.60
2019-05-26T19:25:20.425Z,24.60
2019-05-26T19:27:48.924Z,24.60
2019-05-26T19:30:17.286Z,24.60
2019-05-26T19:32:45.608Z,24.60
2019-05-26T19:35:13.912Z,24.60
2019-05-26T19:37:42.138Z,24.60
2019-05-26T19:40:10.504Z,24.60
2019-05-26T19:42:38.807Z,24.60
2019-05-26T19:45:07.054Z,24.60
2019-05-26T19:47:35.399Z,24.50
2019-05-26T19:50:06.084Z,24.60
2019-05-26T19:52:34.462Z,24.50
2019-05-26T19:55:03.155Z,24.50
2019-05-26T19:57:31.512Z,24.50
2019-05-26T19:59:59.855Z,24.50
2019-05-26T20:02:28.119Z,24.50
2019-05-26T20:04:56.417Z,24.50
2019-05-26T20:07:24.680Z,24.50
2019-05-26T20:09:52.952Z,24.50
2019-05-26T20:12:21.210Z,24.50
2019-05-26T20:14:49.471Z,24.50
2019-05-26T20:17:17.778Z,24.50
2019-05-26T20:19:46.040Z,24.50
2019-05-26T20:22:14.292Z,24.40
2019-05-26T20:24:42.582Z,24.50
2019-05-26T20:27:10.849Z,24.50
2019-05-26T20:29:39.765Z,24.50
2019-05-26T20:32:08.409Z,24.50
2019-05-26T20:34:37.039Z,24.40
2019-05-26T20:37:06.150Z,24.40
2019-05-26T20:39:34.727Z,24.40
2019-05-26T20:42:03.044Z,24.50
2019-05-26T20:44:31.291Z,24.40
2019-05-26T20:46:59.597Z,24.40
2019-05-26T20:49:42.454Z,24.40
2019-05-26T20:51:58.074Z,24.40
2019-05-26T20:54:26.449Z,24.40
2019-05-26T20:56:54.752Z,24.40
2019-05-26T20:59:23.367Z,24.30
2019-05-26T21:01:51.756Z,24.30
2019-05-26T21:04:19.983Z,24.30
2019-05-26T21:06:48.295Z,24.20
2019-05-26T21:09:16.635Z,24.20
2019-05-26T21:11:44.913Z,24.10
2019-05-26T21:14:32.597Z,24.10
2019-05-26T21:17:00.899Z,24.10
2019-05-26T21:19:29.249Z,24.10
2019-05-26T21:21:57.530Z,24.10
2019-05-26T21:24:25.787Z,24.10
2019-05-26T21:26:54.080Z,24.00
2019-05-26T21:29:22.381Z,24.00
2019-05-26T21:31:50.655Z,24.00
2019-05-26T21:34:18.943Z,24.00
2019-05-26T21:36:47.174Z,24.00
2019-05-26T21:39:15.461Z,24.00
2019-05-26T21:41:43.717Z,23.90
2019-05-26T21:44:12.049Z,24.00
2019-05-26T21:46:40.302Z,23.90
2019-05-26T21:49:08.593Z,23.90
2019-05-26T21:51:36.929Z,23.90
2019-05-26T21:54:05.213Z,23.90
2019-05-26T21:56:33.516Z,23.90
2019-05-26T21:59:01.758Z,23.90
2019-05-26T22:01:30.041Z,23.90
2019-05-26T22:03:58.300Z,23.90
2019-05-26T22:06:26.578Z,23.90
2019-05-26T22:08:54.833Z,23.90
2019-05-26T22:11:23.117Z,23.90
2019-05-26T22:13:51.375Z,23.90
2019-05-26T22:16:19.689Z,23.80
2019-05-26T22:18:47.943Z,23.90
2019-05-26T22:21:16.297Z,23.80
2019-05-26T22:23:44.568Z,23.80
2019-05-26T22:26:12.830Z,23.80
2019-05-26T22:28:41.086Z,23.80
2019-05-26T22:31:09.386Z,23.80
2019-05-26T22:33:37.707Z,23.80
2019-05-26T22:36:06.006Z,23.70
2019-05-26T22:38:34.368Z,23.80
2019-05-26T22:41:02.727Z,23.80
2019-05-26T22:43:30.982Z,23.70
2019-05-26T22:45:59.377Z,23.80
2019-05-26T22:48:27.786Z,23.80
2019-05-26T22:50:56.078Z,23.70
2019-05-26T22:53:24.339Z,23.80
2019-05-26T22:55:52.628Z,23.70
2019-05-26T22:58:20.868Z,23.70
2019-05-26T23:00:49.146Z,23.80
2019-05-26T23:03:17.436Z,23.80
2019-05-26T23:05:45.658Z,23.70
2019-05-26T23:08:13.929Z,23.70
2019-05-26T23:10:43.011Z,23.70
2019-05-26T23:13:11.306Z,23.80
2019-05-26T23:15:39.588Z,23.80
2019-05-26T23:18:07.841Z,23.80
2019-05-26T23:20:36.115Z,23.90
2019-05-26T23:23:04.380Z,23.90
2019-05-26T23:25:32.658Z,23.90
2019-05-26T23:28:01.082Z,23.90
2019-05-26T23:30:29.347Z,23.90
2019-05-26T23:32:57.621Z,24.00
2019-05-26T23:35:25.895Z,23.90
2019-05-26T23:37:54.146Z,24.00
2019-05-26T23:40:22.578Z,24.00
2019-05-26T23:42:50.908Z,24.00
2019-05-26T23:45:19.169Z,24.00
2019-05-26T23:47:47.420Z,24.00
2019-05-26T23:50:15.698Z,24.00
2019-05-26T23:52:43.958Z,24.00
2019-05-26T23:55:12.249Z,24.00
2019-05-26T23:57:40.509Z,24.00
